• Join FlightAware (Why Join?)
  • Login
  • US Flag 
05:18PM EDT


 

Airport Tracker/Info


-or-


 

Live Flight TrackerFlight Track Log ✈ N354LQ ✈ 06-Feb-2014 ✈ KMKE - KAPA

Flight Track Log - Related Links

Times and Time Zones

All times are in EST time to prevent confusion due to time zone crossing. See the N354LQ flight status page for this flight to view local times or setup timezone preferences in your user account.

Time Position Orientation Groundspeed Altitude Reporting Facility
EST Latitude Longitude Course Direction KTS MPH feet Rate Location/Type
09:46PM 42.9333 -87.9000 230° Southwest 194 223 1,500  Level KMKE
09:48PM 42.8869 -87.9761 230° Southwest 243 280 6,900 4,140 Climbing Chicago Center
09:49PM 42.8994 -88.0569 282° West 221 254 11,600 3,060 Climbing Chicago Center
09:50PM 42.9169 -88.1422 286° West 240 276 13,200 1,500 Climbing Chicago Center
09:51PM 42.8944 -88.2300 251° West 242 278 14,700 1,380 Climbing Chicago Center
09:52PM 42.8678 -88.3225 249° West 257 296 16,100 1,860 Climbing Chicago Center
09:53PM 42.8467 -88.4347 256° West 298 343 18,600 3,120 Climbing Chicago Center
09:54PM 42.8311 -88.5792 262° West 317 365 22,500 3,540 Climbing Chicago Center
09:55PM 42.8222 -88.6953 264° West 310 357 25,900 2,400 Climbing Chicago Center
09:56PM 42.8169 -88.8114 266° West 307 353 27,500 1,380 Climbing Chicago Center
09:57PM 42.8075 -88.9439 264° West 343 395 28,800 1,500 Climbing Chicago Center
09:58PM 42.7992 -89.0767 265° West 352 405 30,600 1,500 Climbing Chicago Center
09:59PM 42.7939 -89.2058 267° West 343 395 32,000 1,440 Climbing Chicago Center
10:00PM 42.7881 -89.3342 266° West 339 390 33,700 1,620 Climbing Chicago Center
10:01PM 42.7864 -89.4797 269° West 322 371 35,400 1,200 Climbing Chicago Center
10:02PM 42.7739 -89.5964 262° West 323 372 36,200 480 Climbing Chicago Center
10:03PM 42.7597 -89.7153 261° West 319 367 36,500 240 Climbing Chicago Center
10:04PM 42.7444 -89.8383 260° West 327 376 36,800 360 Climbing Chicago Center
10:05PM 42.7278 -89.9692 260° West 333 383 37,300 480 Climbing Chicago Center
10:06PM 42.7158 -90.0958 263° West 338 389 37,900 420 Climbing Chicago Center
10:07PM 42.7019 -90.2158 261° West 326 375 38,200  Climbing Chicago Center
10:08PM 42.6850 -90.3397 260° West 332 382 38,000 -120 Descending Chicago Center
10:09PM 42.6708 -90.4661 261° West 337 388 38,000  Level Chicago Center
10:10PM 42.6536 -90.5914 259° West 340 391 38,000  Level Chicago Center
10:11PM 42.6383 -90.7181 261° West 340 391 38,000  Level Chicago Center
10:12PM 42.6181 -90.8689 260° West 339 390 38,000  Level Chicago Center
10:13PM 42.6006 -90.9942 259° West 338 389 38,000  Level Chicago Center
10:14PM 42.5833 -91.1200 260° West 340 391 38,000  Level Chicago Center
10:16PM 42.5656 -91.2453 259° West 338 389 38,000  Level Chicago Center
10:17PM 42.5497 -91.3719 260° West 340 391 38,000  Level Chicago Center
10:18PM 42.5325 -91.4981 260° West 340 391 38,000  Level Chicago Center
10:19PM 42.5133 -91.6256 259° West 342 394 38,000  Level Chicago Center
10:20PM 42.4958 -91.7528 259° West 342 394 38,000  Level Chicago Center
10:21PM 42.4783 -91.8794 259° West 342 394 38,000  Level Chicago Center
10:22PM 42.4600 -92.0064 259° West 343 395 38,000  Level Chicago Center
10:23PM 42.4411 -92.1333 259° West 344 396 38,000  Level Chicago Center
10:24PM 42.4197 -92.2875 259° West 348 400 38,000  Level Chicago Center
10:25PM 42.4011 -92.4133 259° West 344 396 38,000  Level Chicago Center
10:26PM 42.3831 -92.5406 259° West 345 397 38,000  Level Chicago Center
10:27PM 42.3639 -92.6686 259° West 347 399 38,000  Level Chicago Center
10:28PM 42.3453 -92.7953 259° West 346 398 38,000  Level Chicago Center
10:29PM 42.3253 -92.9233 258° West 349 402 38,000  Level Chicago Center
10:30PM 42.3069 -93.0486 259° West 343 395 38,000  Level Chicago Center
10:31PM 42.2925 -93.1508 259° West 347 399 38,000  Level Minneapolis Center
10:32PM 42.2736 -93.2775 259° West 347 399 38,000  Level Minneapolis Center
10:33PM 42.2489 -93.4278 258° West 344 396 38,000  Level Minneapolis Center
10:34PM 42.2303 -93.5561 259° West 349 402 38,000  Level Minneapolis Center
10:35PM 42.2103 -93.6811 258° West 345 397 38,000  Level Minneapolis Center
10:36PM 42.1889 -93.8089 257° West 350 403 38,000  Level Minneapolis Center
10:37PM 42.1692 -93.9411 259° West 345 397 38,000  Level Minneapolis Center
10:38PM 42.1483 -94.0678 258° West 346 398 38,000  Level Minneapolis Center
10:39PM 42.1275 -94.1956 258° West 349 402 38,000  Level Minneapolis Center
10:40PM 42.1075 -94.3222 258° West 346 398 38,000  Level Minneapolis Center
10:41PM 42.0875 -94.4497 258° West 349 402 38,000  Level Minneapolis Center
10:42PM 42.0658 -94.5767 257° West 348 400 38,000  Level Minneapolis Center
10:43PM 42.0450 -94.7031 258° West 347 399 38,000  Level Minneapolis Center
10:44PM 42.0239 -94.8311 258° West 349 402 38,000  Level Minneapolis Center
10:45PM 41.9981 -94.9833 257° West 349 402 38,000  Level Minneapolis Center
10:46PM 41.9769 -95.1097 257° West 348 400 38,000  Level Minneapolis Center
10:47PM 41.9553 -95.2356 257° West 347 399 38,000  Level Minneapolis Center
10:48PM 41.9336 -95.3622 257° West 348 400 38,000  Level Minneapolis Center
10:49PM 41.9122 -95.4875 257° West 347 399 38,000  Level Minneapolis Center
10:50PM 41.8900 -95.6122 257° West 346 398 38,000  Level Minneapolis Center
10:51PM 41.8672 -95.7381 256° West 348 400 38,000  Level Minneapolis Center
10:52PM 41.8453 -95.8622 257° West 346 398 38,000  Level Minneapolis Center
10:53PM 41.8231 -95.9864 257° West 345 397 38,000  Level Minneapolis Center
10:54PM 41.8003 -96.1114 256° West 346 398 38,000  Level Minneapolis Center
10:55PM 41.7733 -96.2603 256° West 345 397 38,000  Level Minneapolis Center
10:56PM 41.7508 -96.3836 256° West 344 396 38,000  Level Minneapolis Center
10:57PM 41.7275 -96.5086 256° West 346 398 38,000  Level Minneapolis Center
10:58PM 41.7056 -96.6319 257° West 345 397 38,000  Level Minneapolis Center
10:59PM 41.6819 -96.7558 256° West 345 397 38,000  Level Minneapolis Center
11:00PM 41.6597 -96.8806 257° West 347 399 38,000  Level Minneapolis Center
11:01PM 41.6361 -97.0047 256° West 347 399 38,000  Level Minneapolis Center
11:02PM 41.6117 -97.1306 255° West 348 400 38,000  Level Minneapolis Center
11:03PM 41.5878 -97.2558 256° West 349 402 38,000  Level Minneapolis Center
11:04PM 41.5642 -97.3808 256° West 348 400 38,000  Level Minneapolis Center
11:05PM 41.5344 -97.5317 255° West 350 403 38,000  Level Minneapolis Center
11:06PM 41.5100 -97.6569 255° West 350 403 38,000  Level Minneapolis Center
11:07PM 41.4853 -97.7836 255° West 351 404 38,000  Level Minneapolis Center
11:08PM 41.4608 -97.9106 256° West 353 406 38,000  Level Minneapolis Center
11:09PM 41.4342 -98.0356 254° West 353 406 38,000  Level Minneapolis Center
11:10PM 41.4117 -98.1542 256° West 355 409 38,000  Level Minneapolis Center
11:11PM 41.3856 -98.2808 255° West 355 409 38,000  Level Minneapolis Center
11:12PM 41.3561 -98.4308 255° West 352 405 38,000  Level Minneapolis Center
11:13PM 41.3344 -98.5392 255° West 349 402 38,000  Level Minneapolis Center
11:14PM 41.3083 -98.6625 254° West 348 400 38,000  Level Minneapolis Center
11:15PM 41.2828 -98.7856 255° West 346 398 38,000  Level Minneapolis Center
11:16PM 41.2572 -98.9103 255° West 346 398 38,000  Level Minneapolis Center
11:17PM 41.2267 -99.0567 255° West 344 396 38,000  Level Minneapolis Center
11:18PM 41.2042 -99.1631 254° West 346 398 38,000  Level Denver Center
11:19PM 41.1789 -99.2867 255° West 346 398 38,000  Level Denver Center
11:21PM 41.1525 -99.4094 254° West 347 399 38,000  Level Denver Center
11:22PM 41.1242 -99.5453 255° West 350 403 38,000  Level Denver Center
11:23PM 41.1025 -99.6433 254° West 349 402 38,000  Level Denver Center
11:24PM 41.0672 -99.8072 254° West 351 404 38,000  Level Denver Center
11:25PM 41.0422 -99.9211 254° West 352 405 38,000  Level Denver Center
11:26PM 41.0114 -100.0603 254° West 352 405 38,000  Level Denver Center
11:27PM 40.9858 -100.1786 254° West 351 404 38,000  Level Denver Center
11:28PM 40.9506 -100.3381 254° West 353 406 38,000  Level Denver Center
11:29PM 40.9244 -100.4561 254° West 351 404 38,000  Level Denver Center
11:30PM 40.8933 -100.5958 254° West 355 409 38,000  Level Denver Center
11:31PM 40.8686 -100.7025 253° West 353 406 38,000  Level Denver Center
11:32PM 40.8369 -100.8422 253° West 349 402 38,000  Level Denver Center
11:33PM 40.8106 -100.9614 254° West 353 406 38,000  Level Denver Center
11:34PM 40.7833 -101.1017 256° West 354 407 38,000  Level Denver Center
11:35PM 40.7597 -101.2219 256° West 354 407 38,000  Level Denver Center
11:36PM 40.7353 -101.3408 255° West 353 406 38,000  Level Denver Center
11:37PM 40.7081 -101.4811 256° West 354 407 38,000  Level Denver Center
11:38PM 40.6831 -101.6011 255° West 354 407 38,000  Level Denver Center
11:39PM 40.6550 -101.7411 255° West 355 409 38,000  Level Denver Center
11:40PM 40.6303 -101.8600 255° West 353 406 38,000  Level Denver Center
11:41PM 40.6053 -101.9792 255° West 353 406 38,000  Level Denver Center
11:42PM 40.5764 -102.1172 255° West 352 405 38,000  Level Denver Center
11:43PM 40.5511 -102.2361 254° West 353 406 38,000  Level Denver Center
11:44PM 40.5264 -102.3547 255° West 353 406 38,000  Level Denver Center
11:45PM 40.4981 -102.4925 255° West 352 405 38,000  Level Denver Center
11:46PM 40.4722 -102.6111 254° West 353 406 38,000 -300 Level Denver Center
11:47PM 40.4472 -102.7297 255° West 357 411 37,400 -1,380 Descending Denver Center
11:48PM 40.4131 -102.8872 254° West 375 432 35,200 -2,280 Descending Denver Center
11:49PM 40.3836 -103.0192 254° West 377 434 32,800 -2,400 Descending Denver Center
11:50PM 40.3558 -103.1472 254° West 369 425 30,300 -2,280 Descending Denver Center
11:51PM 40.3289 -103.2739 254° West 361 415 28,200 -2,100 Descending Denver Center
11:52PM 40.3011 -103.3953 253° West 351 404 26,100 -1,980 Descending Denver Center
11:54PM 40.2686 -103.5392 254° West 344 396 23,400 -2,220 Descending Denver Center
11:55PM 40.2383 -103.6806 254° West 338 389 20,700 -2,220 Descending Denver Center
11:56PM 40.2086 -103.8133 254° West 337 388 19,000 -1,080 Descending Denver Center
11:57PM 40.1642 -103.9228 242° Southwest 360 414 18,600 -900 Descending Denver Center
11:58PM 40.0894 -104.0236 226° Southwest 387 445 17,200 -1,260 Descending Denver Center
11:59PM 40.0481 -104.1403 245° Southwest 359 413 16,100 -1,260 Descending Denver Center
12:00AM 39.9936 -104.2578 239° Southwest 352 405 14,700 -1,080 Descending Denver Center
12:01AM 39.9447 -104.3664 240° Southwest 348 400 14,000 -420 Descending Denver Center
12:02AM 39.9000 -104.4667 240° Southwest 309 356 13,900 -900 Descending Denver TRACON
12:03AM 39.8597 -104.5539 239° Southwest 286 329 12,200 -1,440 Descending Denver Center
12:04AM 39.8144 -104.6433 237° Southwest 269 310 11,000 -1,080 Descending Denver Center
12:05AM 39.7714 -104.7150 232° Southwest 252 290 10,000 -1,260 Descending Denver Center
12:06AM 39.7189 -104.7875 227° Southwest 271 312 8,500 -1,380 Descending Denver Center
12:07AM 39.6756 -104.8528 229° Southwest 233 268 7,300 -1,020 Descending Denver Center
12:08AM 39.6308 -104.8531 180° South 164 189 6,500 -660 Descending Denver Center
12:09AM 39.5936 -104.8522 179° South 138 159 6,000 -540 Descending Denver Center
12:11AM 39.5667 -104.8333 237° Southwest  Level FlightAware Approximate
12:18AM 39.5701 -104.8493 237° Southwest  Level Estimated